Time;durP1;ratioP1;P1;durP2;ratioP2;P2;SDS_P1;SDS_P2;PMS_P1;PMS_P2;Temp;Humidity;BMP_temperature;BMP_pressure;BME280_temperature;BME280_humidity;BME280_pressure;Samples;Min_cycle;Max_cycle;Signal;HPM_P1;HPM_P2
2022/06/15 00:00:10;;;;;;;8.50;2.50;;;;;;;23.21;41.25;101908.72;5039638;28;20793;-64
2022/06/15 00:02:38;;;;;;;9.75;2.78;;;;;;;23.24;41.24;101916.72;5034830;28;20399;-63
2022/06/15 00:05:07;;;;;;;11.45;3.65;;;;;;;23.22;41.00;101915.75;5032352;28;20399;-63
2022/06/15 00:07:41;;;;;;;8.20;2.60;;;;;;;23.25;41.23;101915.84;5015794;28;20395;-63
2022/06/15 00:10:12;;;;;;;9.50;2.78;;;;;;;23.22;41.02;101921.03;5032554;28;20388;-63
2022/06/15 00:12:42;;;;;;;8.10;2.30;;;;;;;23.17;40.90;101912.16;5014402;28;20811;-64
2022/06/15 00:15:17;;;;;;;4.80;2.43;;;;;;;23.18;41.38;101914.81;5032589;28;20408;-64
2022/06/15 00:17:42;;;;;;;4.77;2.20;;;;;;;23.08;41.30;101901.50;5009474;28;20758;-64
2022/06/15 00:20:18;;;;;;;7.23;2.60;;;;;;;23.15;41.39;101914.75;5024662;28;20379;-64
2022/06/15 00:22:46;;;;;;;8.15;2.60;;;;;;;23.15;41.40;101909.50;5051569;28;20395;-64
2022/06/15 00:25:15;;;;;;;5.65;2.80;;;;;;;22.96;41.64;101879.41;5011413;28;20399;-64
2022/06/15 00:27:43;;;;;;;7.03;2.53;;;;;;;23.11;41.39;101901.56;5011538;28;20396;-64
2022/06/15 00:30:09;;;;;;;5.65;2.42;;;;;;;23.13;41.12;101907.72;5017329;28;20394;-64
2022/06/15 00:32:35;;;;;;;6.20;2.27;;;;;;;23.13;41.35;101911.22;5032135;28;20497;-64
2022/06/15 00:35:05;;;;;;;5.90;2.20;;;;;;;23.13;41.67;101910.34;5017712;28;20778;-64
2022/06/15 00:37:43;;;;;;;6.00;2.30;;;;;;;23.12;41.16;101906.81;5034727;28;20465;-64
2022/06/15 00:40:11;;;;;;;6.30;2.60;;;;;;;23.10;41.58;101905.03;5044264;28;20802;-64
2022/06/15 00:42:36;;;;;;;7.25;2.55;;;;;;;23.09;41.11;101908.53;5032657;28;20529;-64
2022/06/15 00:45:05;;;;;;;7.27;2.43;;;;;;;23.12;41.66;101914.72;5027913;28;20932;-64
2022/06/15 00:47:37;;;;;;;6.13;2.80;;;;;;;23.10;41.23;101915.56;5032907;28;20392;-65
2022/06/15 00:50:06;;;;;;;5.68;2.20;;;;;;;23.11;41.27;101906.81;5016895;28;20395;-64
2022/06/15 00:52:37;;;;;;;5.65;2.50;;;;;;;23.13;41.27;101920.88;5033892;28;20901;-64
2022/06/15 00:55:15;;;;;;;9.93;2.58;;;;;;;23.07;41.53;101905.00;5032523;28;20404;-64
2022/06/15 00:57:41;;;;;;;4.57;2.22;;;;;;;23.11;41.49;101904.19;5031338;28;20403;-65
2022/06/15 01:00:12;;;;;;;5.93;2.40;;;;;;;23.13;41.75;101889.31;5032675;28;20394;-64
2022/06/15 01:02:40;;;;;;;6.18;2.42;;;;;;;23.13;41.56;101894.59;5030841;28;20391;-65
2022/06/15 01:05:18;;;;;;;4.50;2.33;;;;;;;23.13;41.04;101894.59;5033223;28;20753;-64
2022/06/15 01:08:10;;;;;;;4.75;2.35;;;;;;;23.12;41.48;101887.56;5013622;28;20383;-64
2022/06/15 01:10:48;;;;;;;5.40;2.33;;;;;;;23.11;41.41;101891.03;5026938;28;20428;-64
2022/06/15 01:13:34;;;;;;;4.97;2.45;;;;;;;23.12;41.38;101898.06;5024828;28;20407;-64
2022/06/15 01:16:07;;;;;;;5.37;2.50;;;;;;;23.12;41.37;101892.81;5049732;28;20391;-64
2022/06/15 01:21:13;;;;;;;5.32;2.38;;;;;;;23.12;41.63;101898.06;4864421;22;20431;-63
2022/06/15 01:23:51;;;;;;;5.80;2.15;;;;;;;23.14;41.10;101898.97;4992050;28;20398;-62
2022/06/15 01:26:55;;;;;;;4.50;2.03;;;;;;;23.12;41.56;101898.94;4991635;28;20398;-62
2022/06/15 01:29:42;;;;;;;6.05;2.38;;;;;;;23.12;41.47;101903.31;5034651;28;20753;-62
2022/06/15 01:32:25;;;;;;;4.88;2.20;;;;;;;23.09;41.23;101903.28;5028794;28;20400;-63
2022/06/15 01:34:58;;;;;;;4.20;2.40;;;;;;;23.12;41.90;101908.59;5012790;28;20539;-63
2022/06/15 01:37:34;;;;;;;4.45;2.20;;;;;;;23.12;41.73;101908.59;5030442;28;20892;-62
2022/06/15 01:40:15;;;;;;;4.63;2.40;;;;;;;23.11;41.25;101902.44;5030120;28;20405;-63
2022/06/15 01:42:46;;;;;;;4.65;2.58;;;;;;;23.12;41.25;101903.31;4996329;28;20476;-63
2022/06/15 01:45:15;;;;;;;5.80;2.60;;;;;;;23.10;41.66;101899.78;5000222;28;20770;-62
2022/06/15 01:47:43;;;;;;;3.95;2.20;;;;;;;23.07;41.67;101886.59;5003739;28;20919;-63
2022/06/15 01:50:22;;;;;;;5.65;2.78;;;;;;;23.09;41.62;101887.50;4997822;28;20399;-62
2022/06/15 01:52:54;;;;;;;3.72;2.28;;;;;;;23.03;41.88;101886.53;5013560;28;20487;-62
2022/06/15 01:55:28;;;;;;;4.10;2.15;;;;;;;22.96;41.41;101871.53;5009488;28;20411;-63
2022/06/15 01:57:56;;;;;;;3.42;2.05;;;;;;;23.11;41.24;101897.16;4993824;28;20397;-63
2022/06/15 02:00:22;;;;;;;3.40;2.20;;;;;;;23.12;41.17;101887.56;4998927;28;20890;-63
2022/06/15 02:03:08;;;;;;;4.40;2.30;;;;;;;23.12;41.43;101898.06;5012168;28;20407;-62
2022/06/15 02:05:42;;;;;;;4.18;2.33;;;;;;;23.10;41.62;101876.13;5026668;28;20398;-63
2022/06/15 02:08:22;;;;;;;4.00;2.15;;;;;;;23.13;41.92;101889.31;4997447;28;20486;-62
2022/06/15 02:11:03;;;;;;;3.40;2.20;;;;;;;23.13;41.36;101889.31;4983433;28;20875;-62
2022/06/15 02:13:42;;;;;;;5.13;2.88;;;;;;;23.12;41.18;101887.56;4995787;28;20489;-62
2022/06/15 02:16:12;;;;;;;5.10;2.45;;;;;;;23.08;41.70;101875.22;5012134;28;20402;-63
2022/06/15 02:18:40;;;;;;;5.43;2.90;;;;;;;23.10;41.54;101879.63;5012793;28;20471;-63
2022/06/15 02:21:09;;;;;;;5.00;2.42;;;;;;;23.10;41.84;101884.03;5033953;28;20398;-63
2022/06/15 02:23:37;;;;;;;5.53;2.53;;;;;;;23.08;41.92;101880.50;5004125;28;20395;-62
2022/06/15 02:26:03;;;;;;;4.05;2.38;;;;;;;23.11;41.65;101885.78;5009917;28;20423;-63
2022/06/15 02:28:33;;;;;;;4.35;2.50;;;;;;;23.09;41.95;101882.25;4999258;28;20483;-63
2022/06/15 02:30:59;;;;;;;4.90;2.50;;;;;;;23.11;41.38;101885.78;4999684;28;20435;-63
2022/06/15 02:33:30;;;;;;;4.53;2.80;;;;;;;23.11;41.71;101891.03;5032885;28;20444;-62
2022/06/15 02:35:57;;;;;;;5.75;3.72;;;;;;;23.09;41.85;101883.13;5015552;28;20401;-62
2022/06/15 02:38:24;;;;;;;4.40;2.58;;;;;;;23.11;41.94;101885.78;5003227;28;20406;-62
2022/06/15 02:40:50;;;;;;;5.38;2.58;;;;;;;23.11;41.71;101880.53;5012320;28;20405;-63
2022/06/15 02:43:22;;;;;;;3.70;2.40;;;;;;;22.98;41.68;101854.06;5014935;28;20400;-62
2022/06/15 02:45:48;;;;;;;5.07;2.38;;;;;;;23.10;42.00;101878.78;5015535;28;20381;-62
2022/06/15 02:48:14;;;;;;;5.67;2.60;;;;;;;23.11;41.32;101875.28;5015745;28;20404;-62
2022/06/15 02:51:03;;;;;;;4.25;2.40;;;;;;;23.12;41.67;101871.78;4999782;28;20901;-62
2022/06/15 02:53:31;;;;;;;3.80;2.50;;;;;;;22.77;41.46;101813.41;4977674;28;20396;-62
2022/06/15 02:55:57;;;;;;;3.55;2.20;;;;;;;23.11;41.90;101870.03;4986551;28;20390;-62
2022/06/15 02:58:35;;;;;;;5.20;2.40;;;;;;;23.09;41.51;101871.75;5015210;28;20409;-62
2022/06/15 03:01:02;;;;;;;4.63;2.60;;;;;;;23.11;41.73;101870.03;5015573;28;20459;-62
2022/06/15 03:03:31;;;;;;;4.13;2.30;;;;;;;23.11;42.16;101864.78;5016294;28;20413;-62
2022/06/15 03:05:58;;;;;;;5.70;2.50;;;;;;;23.11;41.28;101865.63;4999029;28;20398;-62
2022/06/15 03:08:24;;;;;;;5.10;2.35;;;;;;;23.12;42.16;101861.28;5013291;28;20776;-62
2022/06/15 03:10:50;;;;;;;3.90;2.60;;;;;;;23.11;41.55;101862.16;5014446;28;20407;-63
2022/06/15 03:13:16;;;;;;;4.37;2.47;;;;;;;23.12;42.03;101871.78;4998216;28;20401;-63
2022/06/15 03:15:44;;;;;;;4.00;2.33;;;;;;;23.10;41.54;101863.00;5013872;28;20466;-62
2022/06/15 03:18:12;;;;;;;4.70;2.60;;;;;;;23.12;41.97;101871.78;5002015;28;20401;-62
2022/06/15 03:20:40;;;;;;;3.88;2.30;;;;;;;23.11;42.11;101864.78;5014813;28;20413;-63
2022/06/15 03:23:06;;;;;;;4.13;2.38;;;;;;;23.13;41.93;101873.56;5013955;28;20407;-62
2022/06/15 03:25:36;;;;;;;4.15;2.65;;;;;;;23.12;41.96;101871.78;5014911;28;20397;-63
2022/06/15 03:28:01;;;;;;;4.40;2.20;;;;;;;23.11;41.63;101867.41;4997865;28;20961;-63
2022/06/15 03:30:27;;;;;;;3.83;2.30;;;;;;;23.10;41.63;101874.38;5032282;28;20500;-62
2022/06/15 03:32:52;;;;;;;4.23;2.20;;;;;;;23.11;42.05;101875.28;4981192;28;20768;-62
2022/06/15 03:35:18;;;;;;;3.57;2.03;;;;;;;22.96;41.64;101845.28;5009921;28;20475;-62
2022/06/15 03:37:43;;;;;;;3.33;2.20;;;;;;;23.09;41.91;101867.34;5032707;28;20446;-62
2022/06/15 03:40:10;;;;;;;3.93;2.53;;;;;;;23.12;42.16;101882.31;5011736;28;20401;-61
2022/06/15 03:42:36;;;;;;;6.07;2.30;;;;;;;23.11;41.91;101880.53;5014750;28;20901;-61
2022/06/15 03:45:02;;;;;;;3.22;2.25;;;;;;;23.12;41.73;101877.06;4997459;28;20509;-62
2022/06/15 03:47:28;;;;;;;6.00;2.42;;;;;;;23.07;41.39;101855.06;5028795;28;20488;-62
2022/06/15 03:49:54;;;;;;;4.20;2.42;;;;;;;23.12;41.80;101871.78;4996487;28;20527;-62
2022/06/15 03:52:21;;;;;;;4.05;2.30;;;;;;;23.11;41.97;101864.78;5014912;28;20400;-62
2022/06/15 03:54:47;;;;;;;4.30;2.58;;;;;;;23.00;41.88;101847.09;5010457;28;20406;-63
2022/06/15 03:57:14;;;;;;;4.07;2.78;;;;;;;23.11;41.79;101862.16;5015364;28;20537;-63
2022/06/15 03:59:39;;;;;;;3.25;2.20;;;;;;;23.11;41.81;101859.50;5029521;28;20430;-62
2022/06/15 04:02:05;;;;;;;3.30;2.22;;;;;;;23.11;42.12;101870.03;5013336;28;20404;-63
2022/06/15 04:04:31;;;;;;;4.18;2.28;;;;;;;23.10;42.04;101863.88;4993266;28;20993;-63
2022/06/15 04:06:57;;;;;;;4.13;2.40;;;;;;;23.10;42.16;101869.13;4997463;28;20411;-62
2022/06/15 04:09:22;;;;;;;3.97;2.20;;;;;;;23.12;41.72;101866.53;5011929;28;20408;-62
2022/06/15 04:14:32;;;;;;;3.63;2.20;;;;;;;23.11;41.98;101865.63;5016577;28;20804;-62
2022/06/15 04:17:00;;;;;;;3.22;2.10;;;;;;;23.13;41.50;101873.56;4998065;28;20401;-62
2022/06/15 04:19:30;;;;;;;4.35;2.45;;;;;;;23.13;42.08;101863.06;5032044;28;20401;-62
2022/06/15 04:21:56;;;;;;;3.10;2.33;;;;;;;23.13;41.65;101863.06;4997629;28;20421;-62
2022/06/15 04:24:23;;;;;;;4.05;2.33;;;;;;;23.11;41.60;101865.63;5008275;28;20434;-62
2022/06/15 04:26:49;;;;;;;3.40;2.33;;;;;;;23.13;41.79;101863.91;4997109;28;20420;-63
2022/06/15 04:29:15;;;;;;;3.37;2.23;;;;;;;23.12;41.92;101861.28;5013214;28;20420;-63
2022/06/15 04:31:41;;;;;;;4.38;2.28;;;;;;;23.13;41.60;101868.31;4997542;28;20480;-63
2022/06/15 04:34:07;;;;;;;3.50;2.20;;;;;;;23.13;41.95;101863.06;5007275;28;20490;-62
2022/06/15 04:36:33;;;;;;;3.50;2.10;;;;;;;23.12;41.89;101861.28;5014154;28;20406;-62
2022/06/15 04:38:59;;;;;;;3.58;2.30;;;;;;;23.11;41.51;101864.78;4994908;28;20466;-62
2022/06/15 04:41:24;;;;;;;3.70;2.00;;;;;;;23.14;41.96;101870.06;5016183;28;20440;-62
2022/06/15 04:43:50;;;;;;;3.15;1.92;;;;;;;23.13;41.93;101863.06;5012554;28;20394;-62
2022/06/15 04:46:15;;;;;;;3.10;2.03;;;;;;;23.11;41.72;101870.91;5013845;28;20434;-62
2022/06/15 04:48:41;;;;;;;2.83;2.10;;;;;;;23.13;41.56;101868.31;5014110;28;20412;-63
2022/06/15 04:51:20;;;;;;;3.33;2.28;;;;;;;23.12;41.74;101866.53;4993917;28;20745;-63
2022/06/15 04:53:46;;;;;;;3.57;2.27;;;;;;;23.11;42.25;101870.03;4993180;28;20797;-62
2022/06/15 04:56:12;;;;;;;3.83;2.80;;;;;;;23.14;42.21;101875.34;5016450;28;20427;-63
2022/06/15 04:58:39;;;;;;;3.20;2.13;;;;;;;23.11;41.58;101875.28;5001746;28;20418;-63
2022/06/15 05:01:05;;;;;;;2.87;2.20;;;;;;;23.14;41.56;101872.72;4993440;28;20436;-63
2022/06/15 05:03:31;;;;;;;2.97;2.10;;;;;;;23.12;41.30;101871.78;5014643;28;20923;-63
2022/06/15 05:05:57;;;;;;;3.03;2.00;;;;;;;23.07;41.98;101860.31;5022437;28;20484;-63
2022/06/15 05:08:22;;;;;;;3.90;2.10;;;;;;;23.00;42.17;101847.09;4997888;28;20425;-62
2022/06/15 05:10:48;;;;;;;3.37;2.13;;;;;;;23.14;41.46;101870.94;5013098;28;20377;-62
2022/06/15 05:13:13;;;;;;;3.57;2.20;;;;;;;23.13;42.13;101869.19;5029871;28;20535;-63
2022/06/15 05:15:38;;;;;;;3.70;2.20;;;;;;;23.12;42.09;101874.44;5030662;28;20401;-63
2022/06/15 05:18:06;;;;;;;3.50;2.20;;;;;;;23.16;41.50;101870.97;5014297;28;20393;-63
2022/06/15 05:20:37;;;;;;;3.53;2.20;;;;;;;23.14;42.05;101864.81;4995998;28;20917;-63
2022/06/15 05:23:02;;;;;;;3.47;2.58;;;;;;;23.16;41.73;101869.22;4996771;28;20389;-63
2022/06/15 05:25:28;;;;;;;3.40;2.20;;;;;;;23.16;41.92;101873.63;4994912;28;20991;-62
2022/06/15 05:27:53;;;;;;;3.15;2.20;;;;;;;23.05;41.76;101861.19;5012727;28;20455;-63
2022/06/15 05:30:18;;;;;;;3.23;2.10;;;;;;;23.15;41.73;101870.09;4996233;28;20401;-63
2022/06/15 05:32:44;;;;;;;3.37;2.13;;;;;;;23.16;41.82;101873.63;5030662;28;20403;-63
2022/06/15 05:35:10;;;;;;;3.55;1.98;;;;;;;23.18;41.90;101877.16;4995712;28;20802;-63
2022/06/15 05:37:36;;;;;;;2.77;1.90;;;;;;;23.15;41.63;101877.09;5030963;28;20447;-63
2022/06/15 05:40:01;;;;;;;3.08;2.00;;;;;;;23.17;41.39;101888.53;5014121;28;20393;-63
2022/06/15 05:42:28;;;;;;;3.05;2.17;;;;;;;23.16;41.83;101884.13;5018784;28;20480;-62
2022/06/15 05:44:55;;;;;;;2.72;1.92;;;;;;;23.17;42.01;101880.63;5012322;28;20404;-63
2022/06/15 05:47:20;;;;;;;2.60;2.08;;;;;;;23.18;42.05;101887.66;5013286;28;20389;-62
2022/06/15 05:49:45;;;;;;;3.03;1.90;;;;;;;23.11;42.02;101880.53;4999829;28;20456;-63
2022/06/15 05:52:11;;;;;;;4.60;2.20;;;;;;;23.02;41.52;101860.22;4997158;28;20476;-63
2022/06/15 05:54:36;;;;;;;4.07;1.80;;;;;;;23.15;41.55;101888.47;5016382;28;20481;-62
2022/06/15 05:57:04;;;;;;;3.20;2.20;;;;;;;23.14;41.63;101881.44;5014971;28;20848;-63
2022/06/15 05:59:29;;;;;;;2.72;2.00;;;;;;;23.15;41.64;101887.59;4998767;28;20423;-63
2022/06/15 06:01:55;;;;;;;3.50;2.27;;;;;;;23.17;41.68;101891.16;5000819;28;20882;-63
2022/06/15 06:04:20;;;;;;;3.17;1.80;;;;;;;23.18;42.14;101888.53;5015043;28;20551;-62
2022/06/15 06:06:48;;;;;;;3.53;2.05;;;;;;;23.15;41.71;101882.34;5015031;28;20479;-63
2022/06/15 06:09:13;;;;;;;3.60;2.03;;;;;;;23.19;41.61;101894.69;4999782;28;20929;-63
2022/06/15 06:11:39;;;;;;;2.80;2.00;;;;;;;23.18;41.50;101892.91;4999233;28;20527;-64
2022/06/15 06:14:04;;;;;;;2.67;1.97;;;;;;;23.16;41.63;101885.00;5016191;28;20450;-63
2022/06/15 06:16:30;;;;;;;2.23;1.60;;;;;;;23.17;42.03;101893.78;5005007;28;20405;-64
2022/06/15 06:18:56;;;;;;;4.47;2.27;;;;;;;23.15;42.03;101887.59;4999867;28;20397;-64
2022/06/15 06:21:21;;;;;;;3.13;2.08;;;;;;;23.19;41.71;101894.69;4996431;28;20409;-64
2022/06/15 06:23:47;;;;;;;2.93;2.20;;;;;;;23.16;41.87;101889.38;5020594;28;20415;-63
2022/06/15 06:26:25;;;;;;;4.67;2.17;;;;;;;23.19;41.85;101898.19;5000138;28;20393;-64
2022/06/15 06:28:50;;;;;;;2.90;1.97;;;;;;;23.22;41.44;101900.00;5024175;28;20398;-64
2022/06/15 06:31:19;;;;;;;3.53;1.90;;;;;;;23.22;41.74;101900.00;5014633;28;20416;-64
2022/06/15 06:33:45;;;;;;;2.90;1.90;;;;;;;23.19;41.59;101895.56;5000447;28;20405;-63
2022/06/15 06:36:29;;;;;;;3.40;1.85;;;;;;;23.23;41.87;101901.75;4999350;28;20408;-64
2022/06/15 06:38:55;;;;;;;3.60;2.10;;;;;;;23.21;42.05;101898.22;5013043;28;20405;-63
2022/06/15 06:41:22;;;;;;;2.65;1.80;;;;;;;23.16;42.03;101894.63;5019320;28;20416;-64
2022/06/15 06:43:48;;;;;;;2.88;1.88;;;;;;;23.23;42.09;101903.50;5000257;28;20390;-64
2022/06/15 06:46:13;;;;;;;2.20;1.70;;;;;;;23.23;42.05;101899.13;5015563;28;20916;-64
2022/06/15 06:48:38;;;;;;;2.33;1.80;;;;;;;23.21;41.99;101903.47;5015051;28;20400;-64
2022/06/15 06:51:04;;;;;;;3.83;2.10;;;;;;;23.24;42.08;101897.41;5030643;28;20405;-63
2022/06/15 06:53:29;;;;;;;3.20;1.95;;;;;;;23.22;41.66;101900.00;5002692;28;20407;-63
2022/06/15 06:56:08;;;;;;;2.30;1.70;;;;;;;23.23;41.69;101907.03;5015681;28;20979;-64
2022/06/15 06:58:33;;;;;;;2.85;1.80;;;;;;;23.21;41.36;101898.22;4999357;28;20843;-64
2022/06/15 07:00:59;;;;;;;3.30;1.83;;;;;;;23.22;41.68;101900.00;5005337;28;20452;-64
2022/06/15 07:03:24;;;;;;;3.00;1.80;;;;;;;23.22;41.79;101902.63;5013593;28;20451;-64
2022/06/15 07:05:50;;;;;;;2.93;1.80;;;;;;;23.20;41.59;101891.19;5015418;28;20463;-64
2022/06/15 07:08:18;;;;;;;2.73;1.80;;;;;;;23.22;41.99;101900.00;5029766;28;20537;-63
2022/06/15 07:10:43;;;;;;;2.73;1.77;;;;;;;23.21;41.92;101903.47;5014923;28;20393;-63
2022/06/15 07:13:09;;;;;;;2.67;1.70;;;;;;;23.20;41.70;101901.72;5035489;28;20388;-63
2022/06/15 07:15:37;;;;;;;2.73;1.80;;;;;;;23.21;41.68;101898.22;5039300;28;20804;-64
2022/06/15 07:18:03;;;;;;;2.40;1.80;;;;;;;23.23;41.56;101907.03;5014676;28;20881;-64
2022/06/15 07:20:31;;;;;;;3.20;1.75;;;;;;;23.23;41.78;101901.75;5027971;23;20502;-56
2022/06/15 07:22:59;;;;;;;2.90;2.00;;;;;;;23.24;41.63;101903.56;5034397;28;20442;-55
2022/06/15 07:25:25;;;;;;;3.17;2.17;;;;;;;23.14;41.45;101885.84;5031257;28;20449;-52
2022/06/15 07:27:53;;;;;;;2.67;1.87;;;;;;;23.23;41.81;101901.75;5027376;28;20403;-52
2022/06/15 07:30:22;;;;;;;3.53;2.40;;;;;;;23.23;41.68;101893.88;5034162;28;20419;-53
2022/06/15 07:32:51;;;;;;;3.50;2.00;;;;;;;23.24;42.14;101903.56;5015783;28;20401;-50
2022/06/15 07:35:22;;;;;;;3.28;2.00;;;;;;;23.23;42.03;101899.13;5034934;28;20498;-53
2022/06/15 07:37:49;;;;;;;2.70;1.70;;;;;;;23.25;41.57;101904.44;5030153;28;20435;-53
2022/06/15 07:40:15;;;;;;;2.80;1.57;;;;;;;23.24;41.60;101903.56;5044867;28;20395;-54
2022/06/15 07:42:45;;;;;;;2.70;1.83;;;;;;;23.22;41.56;101900.00;5035817;28;20396;-53
2022/06/15 07:45:11;;;;;;;1.92;1.52;;;;;;;23.25;41.95;101904.44;5010946;28;20476;-50
2022/06/15 07:50:26;;;;;;;3.40;1.75;;;;;;;23.23;41.47;101901.75;5045490;28;20494;-55
2022/06/15 07:52:52;;;;;;;3.47;1.90;;;;;;;23.25;41.48;101897.44;5051446;28;20912;-51
2022/06/15 07:55:26;;;;;;;3.55;1.80;;;;;;;23.25;41.84;101900.06;5042696;28;20407;-56
2022/06/15 07:57:52;;;;;;;2.40;1.60;;;;;;;23.25;41.68;101905.34;5029150;28;20395;-55
2022/06/15 08:00:19;;;;;;;3.27;1.67;;;;;;;23.24;41.35;101898.31;5032009;28;20405;-54
2022/06/15 08:02:45;;;;;;;2.55;1.70;;;;;;;23.26;41.79;101901.84;5034449;28;20383;-55
2022/06/15 08:05:13;;;;;;;3.10;1.80;;;;;;;23.23;41.55;101901.75;5037292;28;20390;-54
2022/06/15 08:07:44;;;;;;;2.47;1.40;;;;;;;23.25;41.75;101900.06;5038412;28;20540;-58
2022/06/15 08:10:15;;;;;;;2.50;1.70;;;;;;;23.24;41.51;101903.56;5032510;28;20487;-55
2022/06/15 08:12:41;;;;;;;3.45;1.90;;;;;;;23.24;42.14;101898.31;5018264;28;20899;-55
2022/06/15 08:15:08;;;;;;;2.38;1.73;;;;;;;23.24;41.80;101898.31;5013925;28;20475;-55
2022/06/15 08:17:41;;;;;;;3.30;1.70;;;;;;;23.25;41.90;101894.81;5035309;28;20786;-59
2022/06/15 08:20:15;;;;;;;3.08;1.60;;;;;;;23.25;41.41;101892.19;5017578;28;20388;-59
2022/06/15 08:22:44;;;;;;;2.30;1.63;;;;;;;23.26;41.88;101895.69;5032200;28;20416;-59
2022/06/15 08:25:13;;;;;;;3.83;1.90;;;;;;;23.26;41.46;101895.69;5034684;28;20372;-59
2022/06/15 08:27:42;;;;;;;3.20;1.80;;;;;;;23.25;41.52;101889.56;5034436;28;20383;-58
2022/06/15 08:30:10;;;;;;;2.28;1.60;;;;;;;23.27;42.04;101887.84;5031520;28;20393;-59
2022/06/15 08:32:35;;;;;;;2.13;1.60;;;;;;;23.28;41.83;101889.63;5033667;28;20495;-59
2022/06/15 08:35:01;;;;;;;2.13;1.70;;;;;;;23.27;41.74;101885.22;5031570;28;20478;-59
2022/06/15 08:37:26;;;;;;;2.40;1.60;;;;;;;23.27;41.49;101890.47;5030509;28;20393;-58
2022/06/15 08:39:51;;;;;;;2.10;1.60;;;;;;;23.27;41.85;101876.44;5049623;28;20439;-59
2022/06/15 08:42:31;;;;;;;2.70;1.80;;;;;;;23.29;42.18;101890.47;5017561;28;20399;-60
2022/06/15 08:45:36;;;;;;;2.67;1.70;;;;;;;23.32;41.80;101880.91;5032846;28;20721;-63
2022/06/15 08:48:25;;;;;;;2.75;1.67;;;;;;;23.33;41.91;101882.69;5033591;28;20821;-60
2022/06/15 08:51:02;;;;;;;2.30;1.70;;;;;;;23.34;42.05;101884.44;5017336;28;20752;-62
2022/06/15 08:53:43;;;;;;;2.92;1.60;;;;;;;23.33;42.06;101872.16;5033730;28;20795;-62
2022/06/15 08:56:21;;;;;;;3.03;1.70;;;;;;;23.35;41.29;101880.09;5044135;28;20457;-62
2022/06/15 08:58:51;;;;;;;3.13;1.73;;;;;;;23.30;41.65;101869.50;5034038;28;20387;-59
2022/06/15 09:01:51;;;;;;;2.55;1.75;;;;;;;23.36;41.43;101873.06;5030321;28;20393;-53
2022/06/15 09:04:29;;;;;;;2.70;1.60;;;;;;;23.37;41.53;101872.22;5027552;28;20539;-60
2022/06/15 09:07:06;;;;;;;2.00;1.40;;;;;;;23.37;41.79;101874.84;5033718;28;20388;-58
2022/06/15 09:09:52;;;;;;;4.40;1.80;;;;;;;23.36;41.88;101875.72;5052118;28;20484;-58
2022/06/15 09:13:04;;;;;;;3.08;1.75;;;;;;;23.39;42.25;101881.00;5035012;28;20403;-61
2022/06/15 09:15:43;;;;;;;3.03;1.70;;;;;;;23.34;41.60;101868.69;5037132;28;20453;-60
2022/06/15 09:18:25;;;;;;;2.58;1.70;;;;;;;23.37;41.59;101874.84;5018217;28;20801;-60
2022/06/15 09:21:08;;;;;;;2.80;1.90;;;;;;;23.30;41.69;101866.88;5017185;28;20788;-60
2022/06/15 09:23:41;;;;;;;3.47;1.70;;;;;;;23.40;42.25;101880.16;5016167;28;20441;-62
2022/06/15 09:26:15;;;;;;;2.42;1.80;;;;;;;23.40;41.75;101877.53;5034022;28;20473;-55
2022/06/15 09:28:47;;;;;;;3.03;1.75;;;;;;;23.38;41.68;101876.63;5032302;28;20401;-62
2022/06/15 09:31:29;;;;;;;2.65;1.60;;;;;;;23.40;42.10;101877.53;5016937;28;20393;-62
2022/06/15 09:34:04;;;;;;;4.30;1.80;;;;;;;23.37;41.72;101867.84;5014875;28;20395;-62
2022/06/15 09:36:40;;;;;;;2.75;1.58;;;;;;;23.31;41.70;101858.13;5027488;28;20399;-61
2022/06/15 09:39:05;;;;;;;6.32;1.80;;;;;;;23.37;41.65;101866.97;5034886;28;20767;-61
2022/06/15 09:41:50;;;;;;;4.17;1.63;;;;;;;23.40;41.28;101872.25;5043925;28;20519;-62
2022/06/15 09:44:27;;;;;;;3.23;1.73;;;;;;;23.40;41.96;101869.63;5038302;28;20892;-61
2022/06/15 09:46:58;;;;;;;3.85;1.67;;;;;;;23.39;42.14;101871.41;5048881;28;20445;-62
2022/06/15 09:49:47;;;;;;;2.72;1.60;;;;;;;23.39;42.02;101870.50;5016729;28;20890;-61
2022/06/15 09:52:15;;;;;;;4.55;1.90;;;;;;;23.40;41.53;101872.25;5044216;28;20698;-62
2022/06/15 09:54:43;;;;;;;3.33;1.50;;;;;;;23.41;41.88;101874.94;5052896;28;20397;-59
2022/06/15 09:57:10;;;;;;;3.30;1.60;;;;;;;23.41;42.04;101868.78;5033132;28;20384;-59
2022/06/15 09:59:35;;;;;;;3.28;1.80;;;;;;;23.42;42.21;101876.69;5008997;28;20885;-55
2022/06/15 10:02:07;;;;;;;5.97;1.80;;;;;;;23.43;41.88;101867.06;5032626;28;20437;-56
2022/06/15 10:04:37;;;;;;;3.92;1.70;;;;;;;23.41;41.43;101864.41;5037259;28;20397;-55
2022/06/15 10:07:16;;;;;;;3.92;1.80;;;;;;;23.46;41.77;101861.84;5039056;28;20409;-59
2022/06/15 10:09:55;;;;;;;5.57;1.90;;;;;;;23.45;41.98;101857.44;5032552;28;20406;-60
2022/06/15 10:12:56;;;;;;;4.32;1.60;;;;;;;23.44;42.19;101847.78;5032227;28;20424;-60
2022/06/15 10:15:23;;;;;;;4.70;1.80;;;;;;;23.39;42.33;101844.22;5012187;28;20823;-57
2022/06/15 10:17:56;;;;;;;5.53;1.88;;;;;;;23.45;41.67;101849.56;5016858;28;20804;-55
2022/06/15 10:20:32;;;;;;;3.13;1.55;;;;;;;23.39;42.19;101823.19;5002755;28;20409;-53
2022/06/15 10:23:01;;;;;;;5.82;2.25;;;;;;;23.46;42.17;101851.31;5049283;28;20449;-59
2022/06/15 10:25:39;;;;;;;3.17;1.70;;;;;;;23.48;42.57;101854.84;5045683;28;20401;-57
2022/06/15 10:28:16;;;;;;;5.72;1.80;;;;;;;23.51;41.86;101849.66;5017327;28;20383;-57
2022/06/15 10:31:04;;;;;;;5.65;1.83;;;;;;;23.49;42.53;101847.00;5032550;28;20783;-56
2022/06/15 10:33:50;;;;;;;4.57;1.98;;;;;;;23.50;41.97;101842.63;5007098;28;20896;-56
2022/06/15 10:36:31;;;;;;;10.15;2.80;;;;;;;23.50;42.16;101837.38;5030147;28;20413;-56
2022/06/15 10:39:06;;;;;;;6.55;2.58;;;;;;;23.52;42.19;101846.16;5048399;28;20407;-53
2022/06/15 10:41:45;;;;;;;8.77;2.60;;;;;;;23.51;42.60;101831.25;5019235;28;20397;-58
2022/06/15 10:44:36;;;;;;;10.23;3.00;;;;;;;23.54;42.12;101840.94;5037788;28;20416;-55
2022/06/15 10:47:20;;;;;;;7.88;2.42;;;;;;;23.53;41.31;101837.41;5052115;28;20427;-58
2022/06/15 10:49:49;;;;;;;9.63;2.70;;;;;;;23.53;41.55;101832.16;5018614;28;20792;-56
2022/06/15 10:52:22;;;;;;;8.75;2.22;;;;;;;23.54;40.83;101833.91;5049743;28;20392;-56
2022/06/15 11:03:47;;;;;;;6.05;2.47;;;;;;;23.34;37.12;101821.38;5000056;28;20891;-57
2022/06/15 11:06:13;;;;;;;5.43;2.50;;;;;;;23.35;37.28;101817.00;5017683;28;20404;-51
2022/06/15 11:08:48;;;;;;;6.83;2.53;;;;;;;23.40;36.83;101824.94;5011587;28;20394;-52
2022/06/15 11:11:26;;;;;;;6.87;2.63;;;;;;;23.42;36.42;101823.22;5050052;28;20922;-53
2022/06/15 11:13:56;;;;;;;5.47;2.20;;;;;;;23.44;36.16;101818.88;5018193;28;20388;-56
2022/06/15 11:19:22;;;;;;;4.63;2.42;;;;;;;23.38;36.35;101810.91;5046454;28;20431;-50
2022/06/15 11:21:56;;;;;;;9.23;2.58;;;;;;;23.44;36.64;101810.97;5013268;28;20784;-58
2022/06/15 11:24:54;;;;;;;4.77;2.30;;;;;;;23.48;36.69;101812.78;5047261;28;20386;-55
2022/06/15 11:27:31;;;;;;;7.67;2.27;;;;;;;23.48;37.03;101807.53;5020403;28;20438;-55
2022/06/15 11:30:00;;;;;;;8.47;2.40;;;;;;;23.55;36.29;101804.13;5015996;28;20403;-56
2022/06/15 11:32:34;;;;;;;7.70;2.53;;;;;;;23.63;38.03;101807.75;5018395;28;20391;-49
2022/06/15 11:35:12;;;;;;;7.47;2.40;;;;;;;23.60;38.02;101786.66;5034685;28;20403;-51
2022/06/15 11:38:15;;;;;;;6.65;2.30;;;;;;;23.66;38.86;101795.50;5048249;28;20383;-51
2022/06/15 11:40:53;;;;;;;8.07;2.60;;;;;;;23.67;38.79;101789.38;5052914;28;20384;-51
2022/06/15 11:43:34;;;;;;;10.32;2.75;;;;;;;23.64;38.96;101775.31;5035296;28;20388;-54
2022/06/15 11:46:18;;;;;;;6.23;2.50;;;;;;;23.69;39.32;101777.13;5017472;28;20423;-54
2022/06/15 11:48:56;;;;;;;7.68;2.42;;;;;;;23.70;39.29;101778.91;5044327;28;20403;-54
2022/06/15 11:51:47;;;;;;;5.07;2.00;;;;;;;23.69;39.09;101780.66;5020826;28;20398;-53
2022/06/15 11:54:33;;;;;;;7.35;2.45;;;;;;;23.67;39.09;101776.22;5027951;28;20384;-52
2022/06/15 11:59:32;;;;;;;9.73;3.63;;;;;;;23.57;39.95;101760.34;5018367;22;20518;-52
2022/06/15 12:02:09;;;;;;;5.37;2.60;;;;;;;23.62;40.23;101771.78;5012861;28;20387;-50
2022/06/15 12:04:47;;;;;;;10.15;2.85;;;;;;;23.60;40.18;101764.75;4986939;28;20403;-51